Time;durP1;ratioP1;P1;durP2;ratioP2;P2;SDS_P1;SDS_P2;PMS_P1;PMS_P2;Temp;Humidity;BMP_temperature;BMP_pressure;BME280_temperature;BME280_humidity;BME280_pressure;Samples;Min_cycle;Max_cycle;Signal;HPM_P1;HPM_P2
2022/12/15 00:38:55;;;;;;;20.43;17.27;;;;;;;1.19;100.00;92017.38;5102303;28;20195;-71
2022/12/15 00:41:21;;;;;;;24.00;19.87;;;;;;;1.12;100.00;91992.84;5112285;28;20224;-72
2022/12/15 00:43:46;;;;;;;21.07;18.80;;;;;;;1.22;100.00;91972.41;5112790;28;20188;-71
2022/12/15 00:48:56;;;;;;;20.47;18.53;;;;;;;1.25;100.00;91966.78;5112454;28;20233;-71
2022/12/15 00:51:21;;;;;;;21.43;19.23;;;;;;;1.32;100.00;91947.59;5112213;28;20220;-71
2022/12/15 01:21:10;;;;;;;22.57;18.70;;;;;;;1.68;100.00;91900.69;5101499;28;20260;-71
2022/12/15 01:23:37;;;;;;;20.63;18.33;;;;;;;1.54;100.00;91899.50;5112071;28;20192;-70
2022/12/15 01:26:04;;;;;;;19.13;17.13;;;;;;;1.60;100.00;91885.69;5112044;28;20220;-71
2022/12/15 01:28:30;;;;;;;19.60;17.47;;;;;;;1.65;100.00;91900.38;5111864;28;20216;-70
2022/12/15 01:30:55;;;;;;;18.03;16.17;;;;;;;1.53;100.00;91892.03;5093837;28;20234;-71
2022/12/15 01:33:21;;;;;;;18.80;17.13;;;;;;;1.42;100.00;91901.44;5111562;28;20176;-71
2022/12/15 01:36:00;;;;;;;17.73;16.10;;;;;;;1.30;100.00;91926.50;5111262;28;20234;-71
2022/12/15 01:38:26;;;;;;;19.30;17.60;;;;;;;1.46;100.00;91920.50;5112550;28;20235;-71
2022/12/15 01:41:14;;;;;;;19.20;17.43;;;;;;;1.27;100.00;91927.00;5111095;28;20216;-70
2022/12/15 01:43:39;;;;;;;18.37;16.13;;;;;;;1.18;100.00;91935.34;5110836;28;20200;-70
2022/12/15 01:46:17;;;;;;;18.93;17.07;;;;;;;1.46;100.00;91892.22;5111479;28;20299;-70
2022/12/15 01:48:56;;;;;;;17.53;16.13;;;;;;;1.42;100.00;91891.16;5111485;28;20256;-71
2022/12/15 01:51:32;;;;;;;16.90;15.40;;;;;;;1.51;100.00;91905.16;5111259;28;20223;-71
2022/12/15 01:54:19;;;;;;;17.37;15.80;;;;;;;1.51;100.00;91887.13;5093007;28;20203;-71
2022/12/15 01:57:00;;;;;;;16.87;15.37;;;;;;;1.73;100.00;91912.06;5111260;28;20231;-71
2022/12/15 01:59:31;;;;;;;16.43;15.03;;;;;;;1.78;100.00;91909.53;5094081;28;20183;-71
2022/12/15 02:01:57;;;;;;;18.50;16.90;;;;;;;1.61;100.00;91884.69;5110574;28;20227;-72
2022/12/15 02:04:23;;;;;;;17.53;15.93;;;;;;;1.74;100.00;91862.16;5111702;28;20192;-71
2022/12/15 02:06:49;;;;;;;17.30;15.77;;;;;;;1.74;100.00;91872.44;5088462;28;20209;-71
2022/12/15 02:09:16;;;;;;;14.03;12.97;;;;;;;1.96;100.00;91860.31;5101885;28;20188;-71
2022/12/15 02:12:15;;;;;;;12.70;11.80;;;;;;;2.00;100.00;91843.34;5110541;28;20241;-71
2022/12/15 02:14:56;;;;;;;13.63;12.70;;;;;;;2.03;100.00;91835.13;5106549;28;20184;-70
2022/12/15 02:17:34;;;;;;;12.80;11.97;;;;;;;2.01;100.00;91808.88;5110884;28;20291;-72
2022/12/15 02:20:17;;;;;;;13.97;12.80;;;;;;;1.74;100.00;91831.28;5110568;28;20425;-71
2022/12/15 02:23:26;;;;;;;13.70;12.77;;;;;;;1.75;100.00;91819.97;5110596;28;20215;-70
2022/12/15 02:26:03;;;;;;;13.73;12.67;;;;;;;1.52;100.00;91803.06;5104849;28;20231;-70
2022/12/15 02:28:42;;;;;;;13.30;12.30;;;;;;;1.60;100.00;91810.34;5110739;28;20234;-70
2022/12/15 02:34:13;;;;;;;15.57;14.17;;;;;;;1.51;100.00;91786.06;5110675;28;20192;-71
2022/12/15 02:36:43;;;;;;;15.23;13.93;;;;;;;1.19;100.00;91798.09;5109727;28;20211;-71
2022/12/15 02:39:11;;;;;;;16.00;14.50;;;;;;;1.53;100.00;91800.25;5096106;28;20184;-71
2022/12/15 02:41:42;;;;;;;16.13;14.57;;;;;;;1.16;100.00;91830.22;5109067;28;20219;-71
2022/12/15 02:44:22;;;;;;;15.93;14.50;;;;;;;1.24;100.00;91837.50;5109795;28;20216;-71
2022/12/15 02:47:03;;;;;;;25.23;17.63;;;;;;;1.39;100.00;91855.66;5109669;28;20279;-71
2022/12/15 02:49:42;;;;;;;15.10;13.67;;;;;;;1.27;100.00;91847.31;5104699;28;20274;-71
2022/12/15 02:52:13;;;;;;;16.63;15.23;;;;;;;1.15;100.00;91851.78;5092260;28;20236;-71
2022/12/15 02:54:47;;;;;;;15.77;14.47;;;;;;;1.40;100.00;91861.59;5110502;28;20187;-71
2022/12/15 02:57:30;;;;;;;15.53;14.33;;;;;;;1.32;100.00;91880.75;5110349;28;20220;-70
2022/12/15 03:00:00;;;;;;;18.03;16.33;;;;;;;1.22;100.00;91880.66;5110176;28;20273;-72
2022/12/15 03:02:29;;;;;;;17.50;15.80;;;;;;;1.53;100.00;91879.97;5109942;28;20237;-71
2022/12/15 03:04:57;;;;;;;18.87;17.23;;;;;;;1.43;100.00;91872.13;5108365;28;20203;-70
2022/12/15 03:07:26;;;;;;;18.43;16.83;;;;;;;1.42;100.00;91868.03;5099585;28;20220;-72
2022/12/15 03:09:54;;;;;;;16.57;15.07;;;;;;;1.44;100.00;91863.44;5110095;28;20215;-72
2022/12/15 03:12:20;;;;;;;18.60;16.50;;;;;;;1.49;100.00;91849.84;5109838;28;20224;-71
2022/12/15 03:14:46;;;;;;;16.60;15.20;;;;;;;1.54;100.00;91863.50;5110090;28;20191;-71
2022/12/15 03:17:11;;;;;;;15.13;13.93;;;;;;;1.47;100.00;91868.09;5109615;28;20223;-72
2022/12/15 03:19:36;;;;;;;17.23;15.70;;;;;;;1.59;100.00;91862.78;5110161;28;20186;-71
2022/12/15 03:22:03;;;;;;;15.87;14.57;;;;;;;1.64;100.00;91873.91;5109108;28;20219;-72
2022/12/15 03:24:28;;;;;;;16.40;14.97;;;;;;;1.42;100.00;91860.31;5109992;28;20176;-72
2022/12/15 03:26:53;;;;;;;15.27;14.07;;;;;;;1.61;100.00;91856.41;5109448;28;20230;-72
2022/12/15 03:29:19;;;;;;;15.57;14.20;;;;;;;1.74;100.00;91857.81;5110377;28;20215;-72
2022/12/15 03:31:44;;;;;;;15.30;14.00;;;;;;;1.30;100.00;91867.38;5109842;28;20319;-72
2022/12/15 03:34:10;;;;;;;16.53;14.90;;;;;;;1.52;100.00;91869.94;5109745;28;20210;-71
2022/12/15 03:36:36;;;;;;;17.03;15.33;;;;;;;1.54;100.00;91842.94;5109553;28;20219;-72
2022/12/15 03:39:01;;;;;;;17.07;15.37;;;;;;;1.49;100.00;91860.13;5108871;28;20201;-73
2022/12/15 03:41:27;;;;;;;19.10;17.13;;;;;;;1.39;100.00;91865.94;5109715;28;20219;-72
2022/12/15 03:43:52;;;;;;;20.47;18.43;;;;;;;1.33;100.00;91836.06;5108788;28;20200;-72
2022/12/15 03:46:17;;;;;;;19.53;17.40;;;;;;;1.54;100.00;91881.50;5110461;28;20254;-72
2022/12/15 03:48:43;;;;;;;20.73;17.70;;;;;;;1.36;100.00;91876.69;5112929;28;20199;-72
2022/12/15 03:51:08;;;;;;;17.80;16.20;;;;;;;1.45;100.00;91870.13;5113776;28;20222;-73
2022/12/15 03:53:34;;;;;;;17.73;16.13;;;;;;;1.42;100.00;91885.22;5110003;28;20191;-71
2022/12/15 03:55:59;;;;;;;17.47;15.97;;;;;;;1.53;100.00;91892.03;5113222;28;20230;-71
2022/12/15 03:58:24;;;;;;;16.67;15.20;;;;;;;1.51;100.00;91894.06;5114482;28;20207;-71
2022/12/15 04:00:49;;;;;;;21.67;18.17;;;;;;;1.47;100.00;91909.22;5104276;28;20288;-71
2022/12/15 04:03:15;;;;;;;17.27;15.70;;;;;;;1.48;100.00;91910.78;5095508;28;20180;-70
2022/12/15 04:05:40;;;;;;;18.60;16.80;;;;;;;1.41;100.00;91910.19;5113612;28;20216;-71
2022/12/15 04:08:06;;;;;;;19.17;17.37;;;;;;;1.48;100.00;91908.19;5107398;28;20393;-70
2022/12/15 04:10:33;;;;;;;20.27;16.87;;;;;;;1.55;100.00;91916.53;5113339;28;20180;-72
2022/12/15 04:13:00;;;;;;;19.23;17.33;;;;;;;1.56;100.00;91917.28;5113348;28;20202;-71
2022/12/15 04:15:26;;;;;;;21.50;18.17;;;;;;;1.77;100.00;91938.84;5113043;28;20208;-72
2022/12/15 04:17:52;;;;;;;19.90;17.90;;;;;;;1.74;100.00;91942.69;5113496;28;20192;-71
2022/12/15 04:20:18;;;;;;;19.53;17.20;;;;;;;1.82;100.00;91934.56;5095016;28;20206;-72
2022/12/15 04:22:45;;;;;;;18.67;16.70;;;;;;;1.78;100.00;91927.53;5113034;28;20223;-72
2022/12/15 05:33:53;;;;;;;25.33;20.87;;;;;;;1.87;100.00;92016.16;5111127;28;20217;-73
2022/12/15 05:36:19;;;;;;;23.93;19.27;;;;;;;1.82;100.00;92026.38;5111401;28;20212;-73
2022/12/15 05:38:50;;;;;;;24.30;20.27;;;;;;;1.94;100.00;92024.47;5111916;28;20218;-74
2022/12/15 05:41:17;;;;;;;26.47;21.83;;;;;;;1.91;100.00;92043.75;5111150;28;20247;-74
2022/12/15 05:43:42;;;;;;;27.23;20.17;;;;;;;2.04;100.00;92047.75;5101977;28;20188;-73
2022/12/15 05:46:08;;;;;;;28.10;20.20;;;;;;;2.03;100.00;92043.59;5110732;28;20232;-73
2022/12/15 05:48:33;;;;;;;31.60;21.10;;;;;;;2.25;100.00;92052.09;5110856;28;20184;-73
2022/12/15 05:51:06;;;;;;;30.13;21.77;;;;;;;2.04;100.00;92073.50;5110349;28;20232;-73
2022/12/15 05:53:31;;;;;;;30.10;22.30;;;;;;;2.06;100.00;92082.50;5111283;28;20184;-73
2022/12/15 05:56:04;;;;;;;25.37;19.97;;;;;;;2.09;100.00;92087.19;5111023;28;20216;-72
2022/12/15 05:58:30;;;;;;;31.07;20.27;;;;;;;2.08;100.00;92075.34;5111175;28;20196;-73
2022/12/15 06:01:13;;;;;;;26.23;19.63;;;;;;;2.18;100.00;92090.13;5093368;28;20227;-73
2022/12/15 06:03:39;;;;;;;24.13;19.10;;;;;;;2.08;100.00;92095.94;5111427;28;20189;-73
2022/12/15 06:06:06;;;;;;;22.43;19.47;;;;;;;2.11;100.00;92099.81;5110895;28;20306;-74
2022/12/15 06:08:33;;;;;;;23.70;19.10;;;;;;;2.26;100.00;92110.28;5111347;28;20180;-73
2022/12/15 06:10:59;;;;;;;23.80;18.67;;;;;;;2.21;100.00;92129.03;5109923;28;20276;-73
2022/12/15 06:13:26;;;;;;;20.77;18.23;;;;;;;2.20;100.00;92114.59;5110971;28;20199;-73
2022/12/15 06:15:59;;;;;;;22.20;18.97;;;;;;;2.23;100.00;92103.03;5110609;28;20220;-73
2022/12/15 06:18:28;;;;;;;24.90;19.60;;;;;;;2.36;100.00;92113.75;5111162;28;20188;-73
2022/12/15 06:21:03;;;;;;;24.03;18.63;;;;;;;2.50;100.00;92132.19;5110452;28;20291;-73
2022/12/15 06:23:29;;;;;;;21.97;19.33;;;;;;;2.46;100.00;92139.63;5111094;28;20179;-73
2022/12/15 06:25:55;;;;;;;21.53;18.90;;;;;;;2.40;100.00;92124.34;5110394;28;20224;-73
2022/12/15 06:28:23;;;;;;;23.87;18.87;;;;;;;2.51;100.00;92149.19;5103670;28;20220;-73
2022/12/15 06:30:53;;;;;;;21.13;19.00;;;;;;;2.33;100.00;92128.91;5105826;28;20211;-73
2022/12/15 06:33:20;;;;;;;24.47;19.27;;;;;;;2.40;100.00;92130.28;5111406;28;20180;-73
2022/12/15 06:35:46;;;;;;;21.70;18.00;;;;;;;2.36;100.00;92164.47;5110280;28;20228;-73
2022/12/15 06:38:12;;;;;;;20.30;18.10;;;;;;;2.24;100.00;92161.25;5111179;28;20195;-72
2022/12/15 06:40:38;;;;;;;21.80;19.30;;;;;;;1.95;100.00;92172.69;5110429;28;20236;-72
2022/12/15 06:43:05;;;;;;;23.07;19.70;;;;;;;2.05;100.00;92165.13;5110740;28;20187;-72
2022/12/15 06:45:30;;;;;;;27.33;20.23;;;;;;;2.33;100.00;92183.78;5110108;28;20188;-73
2022/12/15 06:47:56;;;;;;;24.27;19.70;;;;;;;2.15;100.00;92173.00;5110503;28;20543;-73
2022/12/15 06:50:21;;;;;;;28.93;21.40;;;;;;;2.36;100.00;92169.63;5110101;28;20194;-72
2022/12/15 06:52:46;;;;;;;37.00;23.93;;;;;;;2.67;100.00;92172.31;5100383;28;20200;-72
2022/12/15 06:55:13;;;;;;;31.17;22.37;;;;;;;2.56;100.00;92151.84;5110546;28;20184;-74
2022/12/15 06:57:38;;;;;;;38.57;25.87;;;;;;;2.57;100.00;92163.72;5103226;28;20224;-70
2022/12/15 07:00:05;;;;;;;39.20;25.23;;;;;;;2.68;100.00;92150.69;5108493;28;20192;-69
2022/12/15 07:02:31;;;;;;;34.83;24.63;;;;;;;2.83;100.00;92170.69;5105389;28;20232;-70
2022/12/15 07:04:57;;;;;;;31.73;22.70;;;;;;;3.01;100.00;92178.88;5104321;28;20192;-69
2022/12/15 07:07:23;;;;;;;28.23;23.23;;;;;;;2.99;100.00;92190.44;5108221;28;20238;-70
2022/12/15 07:09:48;;;;;;;30.47;22.77;;;;;;;2.89;100.00;92172.28;5107321;28;20204;-71
2022/12/15 07:12:13;;;;;;;33.13;22.03;;;;;;;2.99;100.00;92193.78;5091017;28;20235;-70
2022/12/15 07:14:39;;;;;;;34.03;26.23;;;;;;;3.03;100.00;92212.13;5105385;28;20267;-68
2022/12/15 07:17:04;;;;;;;32.00;23.53;;;;;;;2.85;100.00;92205.50;5106216;28;20227;-70
2022/12/15 07:19:30;;;;;;;29.60;22.07;;;;;;;2.97;100.00;92213.13;5103349;28;20650;-70
2022/12/15 07:21:56;;;;;;;38.10;25.77;;;;;;;3.08;100.00;92209.63;5108007;28;20219;-70
2022/12/15 07:24:22;;;;;;;76.43;38.80;;;;;;;3.38;100.00;92222.78;5109534;28;20256;-70
2022/12/15 07:26:47;;;;;;;51.50;32.73;;;;;;;3.49;100.00;92215.94;5108535;28;20269;-70
2022/12/15 07:29:13;;;;;;;72.50;40.37;;;;;;;3.54;100.00;92219.31;5108470;28;20224;-70
2022/12/15 07:31:38;;;;;;;56.20;35.90;;;;;;;3.46;100.00;92211.25;5108368;28;20228;-70
2022/12/15 07:34:04;;;;;;;42.63;27.97;;;;;;;3.73;100.00;92237.81;5108108;28;20203;-70
2022/12/15 07:36:29;;;;;;;30.97;21.97;;;;;;;3.69;100.00;92236.75;5108483;28;20228;-70
2022/12/15 07:38:59;;;;;;;28.23;23.40;;;;;;;3.80;100.00;92238.38;5106883;28;20191;-73
2022/12/15 07:41:25;;;;;;;27.60;22.87;;;;;;;3.86;100.00;92239.97;5088098;28;20230;-70
2022/12/15 07:43:51;;;;;;;27.50;20.90;;;;;;;4.22;100.00;92247.72;5108677;28;20180;-71
2022/12/15 07:46:17;;;;;;;46.07;33.57;;;;;;;3.99;100.00;92250.66;5102559;28;20231;-69
2022/12/15 07:48:42;;;;;;;41.60;30.60;;;;;;;4.27;100.00;92255.50;5104346;28;20223;-70
2022/12/15 07:51:08;;;;;;;29.40;22.90;;;;;;;4.33;100.00;92254.50;5094483;28;20223;-70
2022/12/15 07:53:34;;;;;;;24.53;22.10;;;;;;;4.34;100.00;92260.47;5104262;28;20753;-71
2022/12/15 07:56:01;;;;;;;29.77;23.13;;;;;;;4.39;100.00;92256.09;5104044;28;20327;-71
2022/12/15 07:58:27;;;;;;;37.20;27.83;;;;;;;4.48;100.00;92267.50;5105609;28;20243;-71
2022/12/15 08:00:57;;;;;;;49.03;29.40;;;;;;;4.63;100.00;92274.59;5103952;28;20224;-70
2022/12/15 08:03:23;;;;;;;39.33;26.20;;;;;;;4.38;100.00;92262.31;5103393;28;20195;-71
2022/12/15 08:05:48;;;;;;;31.67;23.40;;;;;;;4.48;100.00;92280.44;5107871;28;20310;-71
2022/12/15 08:08:14;;;;;;;26.90;21.20;;;;;;;4.71;100.00;92287.84;5107515;28;20196;-71
2022/12/15 08:10:40;;;;;;;30.47;23.40;;;;;;;4.84;100.00;92286.59;5105480;28;20795;-72
2022/12/15 08:13:05;;;;;;;27.80;22.90;;;;;;;4.71;100.00;92295.59;5107313;28;20180;-71
2022/12/15 08:15:34;;;;;;;20.27;18.27;;;;;;;4.62;100.00;92293.72;5107911;28;20204;-71
2022/12/15 08:18:00;;;;;;;18.77;16.93;;;;;;;4.75;100.00;92281.13;5097244;28;20255;-71
2022/12/15 08:20:25;;;;;;;19.87;16.40;;;;;;;4.53;100.00;92272.72;5107442;28;20199;-71
2022/12/15 08:22:51;;;;;;;22.93;19.67;;;;;;;4.88;100.00;92282.47;5108119;28;20196;-71
2022/12/15 08:25:16;;;;;;;26.73;23.00;;;;;;;4.69;100.00;92287.28;5108177;28;20164;-71
2022/12/15 08:27:41;;;;;;;19.70;17.90;;;;;;;4.84;100.00;92291.78;5102306;28;20239;-70
2022/12/15 08:30:07;;;;;;;23.13;20.73;;;;;;;5.02;100.00;92293.91;5108202;28;20188;-70
2022/12/15 08:32:33;;;;;;;16.53;15.13;;;;;;;5.18;100.00;92294.75;5107367;28;20227;-70
2022/12/15 08:34:58;;;;;;;15.47;14.17;;;;;;;5.61;100.00;92296.94;5111110;28;20805;-70
2022/12/15 08:37:23;;;;;;;18.70;16.80;;;;;;;5.82;100.00;92320.06;5110991;28;20216;-70
2022/12/15 08:39:49;;;;;;;26.17;23.07;;;;;;;5.79;100.00;92314.63;5092900;28;20192;-71
2022/12/15 08:42:14;;;;;;;29.60;22.57;;;;;;;5.69;100.00;92314.59;5110893;28;20265;-70
2022/12/15 08:44:40;;;;;;;29.80;22.60;;;;;;;5.80;100.00;92323.94;5109514;28;20196;-69
2022/12/15 08:47:06;;;;;;;31.73;25.03;;;;;;;5.57;100.00;92329.56;5106839;28;20223;-70
2022/12/15 08:49:31;;;;;;;28.97;24.20;;;;;;;5.66;100.00;92317.69;5111300;28;20730;-70
2022/12/15 08:51:57;;;;;;;33.10;25.70;;;;;;;5.77;100.00;92314.88;5110784;28;20274;-70
2022/12/15 08:54:22;;;;;;;30.87;25.87;;;;;;;6.04;100.00;92325.81;5111546;28;20196;-70
2022/12/15 08:56:48;;;;;;;34.63;25.70;;;;;;;6.17;100.00;92327.13;5107021;28;20228;-69
2022/12/15 08:59:13;;;;;;;32.30;27.30;;;;;;;5.98;100.00;92331.22;5110998;28;20689;-70
2022/12/15 09:01:39;;;;;;;34.67;26.23;;;;;;;5.88;100.00;92332.00;5111122;28;20207;-71
2022/12/15 09:04:05;;;;;;;35.67;26.83;;;;;;;5.55;100.00;92324.66;5110885;28;20229;-71
2022/12/15 09:06:33;;;;;;;36.30;27.50;;;;;;;5.47;100.00;92322.56;5110235;28;20242;-70
2022/12/15 09:09:02;;;;;;;34.13;26.63;;;;;;;5.51;100.00;92331.34;5109661;28;20187;-69
2022/12/15 09:11:29;;;;;;;33.20;26.83;;;;;;;5.77;100.00;92311.50;5110512;28;20251;-69
2022/12/15 09:13:54;;;;;;;33.07;26.57;;;;;;;5.47;100.00;92314.78;5110909;28;20202;-70
2022/12/15 09:16:20;;;;;;;34.30;26.70;;;;;;;5.93;100.00;92316.47;5110056;28;20219;-70
2022/12/15 09:18:48;;;;;;;37.10;26.77;;;;;;;6.26;100.00;92297.06;5111039;28;20180;-69
2022/12/15 09:21:14;;;;;;;37.70;27.40;;;;;;;6.54;100.00;92320.66;5102335;28;20253;-71
2022/12/15 09:23:41;;;;;;;37.90;27.53;;;;;;;6.46;100.00;92322.97;5110653;28;20192;-71
2022/12/15 09:26:10;;;;;;;32.03;27.77;;;;;;;6.73;100.00;92326.06;5098736;28;20253;-70
2022/12/15 09:28:36;;;;;;;43.57;31.27;;;;;;;6.66;100.00;92324.78;5106592;28;20228;-70
2022/12/15 09:31:10;;;;;;;33.67;23.73;;;;;;;7.06;100.00;92332.50;5110167;28;20239;-70
2022/12/15 09:33:37;;;;;;;30.60;25.17;;;;;;;6.88;100.00;92322.69;5109953;28;20195;-70
2022/12/15 09:36:03;;;;;;;27.40;22.40;;;;;;;7.00;100.00;92334.34;5110131;28;20223;-72
2022/12/15 09:38:30;;;;;;;25.33;22.60;;;;;;;7.13;100.00;92341.53;5110858;28;20219;-70
2022/12/15 09:40:55;;;;;;;18.93;17.07;;;;;;;7.28;100.00;92333.72;5092220;28;20216;-70
2022/12/15 09:43:24;;;;;;;18.23;16.53;;;;;;;7.33;100.00;92345.91;5110716;28;20203;-70
2022/12/15 09:46:02;;;;;;;15.40;14.00;;;;;;;7.20;100.00;92334.28;5105873;28;20269;-70
2022/12/15 09:48:37;;;;;;;18.53;16.73;;;;;;;7.33;100.00;92338.88;5110469;28;20191;-70
2022/12/15 09:51:06;;;;;;;17.27;15.67;;;;;;;7.09;100.00;92324.97;5109959;28;20226;-70
2022/12/15 09:53:32;;;;;;;21.57;19.40;;;;;;;7.09;100.00;92350.91;5109816;28;20260;-70
2022/12/15 09:56:10;;;;;;;21.27;19.07;;;;;;;6.67;100.00;92347.06;5109442;28;20227;-70
2022/12/15 09:58:48;;;;;;;19.57;17.47;;;;;;;6.65;100.00;92338.78;5107738;28;20260;-70
2022/12/15 10:01:29;;;;;;;20.83;18.77;;;;;;;6.66;100.00;92346.31;5102789;28;20226;-70
2022/12/15 10:04:11;;;;;;;20.97;18.87;;;;;;;6.62;100.00;92295.22;5109261;28;20200;-72
2022/12/15 10:06:43;;;;;;;21.73;19.60;;;;;;;6.86;100.00;92333.31;5108935;28;20228;-70
2022/12/15 10:09:27;;;;;;;22.37;19.50;;;;;;;7.00;100.00;92331.72;5109446;28;20164;-70
2022/12/15 10:12:01;;;;;;;18.67;16.10;;;;;;;7.08;100.00;92328.56;5107401;28;20305;-71
2022/12/15 10:14:34;;;;;;;16.20;14.57;;;;;;;7.20;100.00;92334.28;5107133;28;20198;-70
2022/12/15 10:17:21;;;;;;;20.70;17.73;;;;;;;7.32;100.00;92332.16;5076204;28;20216;-71
2022/12/15 10:19:54;;;;;;;20.93;18.93;;;;;;;7.16;100.00;92330.63;5107433;28;20183;-71
2022/12/15 10:22:24;;;;;;;21.27;18.83;;;;;;;6.84;100.00;92332.78;5091465;28;20222;-68
2022/12/15 10:24:50;;;;;;;21.13;18.93;;;;;;;6.74;100.00;92327.59;5108826;28;20204;-69
2022/12/15 10:27:50;;;;;;;23.63;20.97;;;;;;;6.68;100.00;92339.03;5089772;28;20229;-70
2022/12/15 10:30:16;;;;;;;22.33;20.10;;;;;;;6.76;100.00;92335.13;5085348;28;20216;-69
2022/12/15 10:32:49;;;;;;;23.60;20.87;;;;;;;6.64;100.00;92347.59;5088926;28;20898;-71
2022/12/15 10:35:19;;;;;;;24.83;20.93;;;;;;;6.67;100.00;92353.06;5087670;28;20251;-70
2022/12/15 10:37:45;;;;;;;25.67;22.33;;;;;;;6.65;100.00;92344.75;5088294;28;20217;-71
2022/12/15 10:40:17;;;;;;;24.13;19.87;;;;;;;6.14;100.00;92332.81;5089163;28;20196;-70
2022/12/15 10:42:48;;;;;;;23.77;20.80;;;;;;;6.14;100.00;92363.91;5088817;28;20276;-71
2022/12/15 10:45:39;;;;;;;27.17;22.23;;;;;;;6.42;100.00;92353.84;5086143;28;20184;-72
2022/12/15 10:48:05;;;;;;;28.73;21.60;;;;;;;6.30;100.00;92332.56;5089070;28;20243;-71
2022/12/15 10:50:32;;;;;;;23.30;20.33;;;;;;;5.95;100.00;92334.34;5087638;28;20214;-71
2022/12/15 10:52:59;;;;;;;23.47;20.97;;;;;;;6.56;100.00;92359.28;5085270;28;20181;-71
2022/12/15 10:55:39;;;;;;;24.47;21.07;;;;;;;6.86;100.00;92351.47;5088252;28;20201;-71
2022/12/15 10:58:21;;;;;;;24.30;21.70;;;;;;;6.83;100.00;92359.78;5085792;28;20185;-70
2022/12/15 11:01:03;;;;;;;28.13;21.77;;;;;;;6.70;100.00;92355.13;5085511;28;20225;-69
2022/12/15 11:03:35;;;;;;;30.57;24.40;;;;;;;6.86;100.00;92361.06;5084552;28;20185;-71
2022/12/15 11:06:00;;;;;;;39.70;27.03;;;;;;;7.02;100.00;92360.78;5088310;28;20248;-73
2022/12/15 11:08:28;;;;;;;31.47;23.97;;;;;;;7.23;100.00;92356.31;5087819;28;20197;-73
2022/12/15 11:14:02;;;;;;;43.70;30.20;;;;;;;7.75;100.00;92334.03;5080376;28;20203;-72
2022/12/15 11:16:30;;;;;;;41.63;30.07;;;;;;;7.96;100.00;92352.91;5084701;28;20249;-72
2022/12/15 11:19:09;;;;;;;39.60;28.23;;;;;;;7.14;100.00;92369.06;5082807;28;20194;-72
2022/12/15 11:21:40;;;;;;;38.93;29.30;;;;;;;7.76;100.00;92346.00;5087197;28;20350;-72
2022/12/15 11:24:14;;;;;;;40.43;28.53;;;;;;;7.29;100.00;92353.44;5087575;28;20319;-73
2022/12/15 11:26:57;;;;;;;39.23;29.20;;;;;;;7.68;100.00;92354.34;5072037;28;20289;-73
2022/12/15 11:29:48;;;;;;;34.10;27.17;;;;;;;7.56;100.00;92356.50;5088356;28;20200;-71
2022/12/15 11:32:14;;;;;;;34.27;27.20;;;;;;;7.63;100.00;92366.56;5087365;28;20315;-69
2022/12/15 11:34:45;;;;;;;33.60;26.43;;;;;;;7.50;100.00;92370.50;5088497;28;20188;-72
2022/12/15 11:37:37;;;;;;;34.93;26.47;;;;;;;7.75;100.00;92354.81;5087345;28;20243;-73
2022/12/15 11:40:30;;;;;;;31.90;27.23;;;;;;;7.53;100.00;92367.38;5087768;28;20191;-73
2022/12/15 11:43:17;;;;;;;33.53;27.77;;;;;;;7.30;100.00;92372.41;5085149;28;20204;-73
2022/12/15 11:46:01;;;;;;;36.93;26.37;;;;;;;7.57;100.00;92367.63;5087215;28;20236;-71
2022/12/15 11:48:37;;;;;;;35.63;26.97;;;;;;;7.11;100.00;92368.81;5085803;28;20199;-71
2022/12/15 11:51:13;;;;;;;32.77;26.57;;;;;;;7.22;100.00;92371.13;5080583;28;20216;-72
2022/12/15 11:54:01;;;;;;;39.53;28.17;;;;;;;6.80;100.00;92373.28;5088034;28;20181;-71
2022/12/15 11:56:38;;;;;;;30.97;26.07;;;;;;;7.43;100.00;92372.63;5087907;28;20232;-72
2022/12/15 11:59:03;;;;;;;36.57;28.83;;;;;;;6.81;100.00;92384.41;5088402;28;20181;-71
2022/12/15 12:01:51;;;;;;;38.60;29.00;;;;;;;7.11;100.00;92372.19;5088346;28;20288;-72
2022/12/15 12:04:23;;;;;;;37.93;29.33;;;;;;;6.83;100.00;92383.13;5083532;28;20188;-72
2022/12/15 12:07:08;;;;;;;41.53;31.10;;;;;;;7.19;100.00;92386.47;5084407;28;20339;-71
2022/12/15 12:09:40;;;;;;;46.23;30.57;;;;;;;6.78;100.00;92384.94;5091289;28;20181;-72
2022/12/15 12:12:11;;;;;;;38.80;29.60;;;;;;;7.06;100.00;92387.00;5090797;28;20212;-72
2022/12/15 12:14:40;;;;;;;36.50;29.57;;;;;;;7.25;100.00;92390.59;5089840;28;20192;-72
2022/12/15 12:17:20;;;;;;;35.80;27.10;;;;;;;7.29;100.00;92391.59;5087853;28;20291;-72
2022/12/15 12:19:57;;;;;;;30.87;24.63;;;;;;;7.55;100.00;92380.09;5090046;28;20226;-72
2022/12/15 12:22:44;;;;;;;27.93;22.70;;;;;;;7.47;100.00;92384.03;5091171;28;20216;-72
2022/12/15 12:25:21;;;;;;;21.33;19.03;;;;;;;7.81;100.00;92374.53;5081518;28;20188;-72
2022/12/15 12:27:57;;;;;;;23.87;20.97;;;;;;;7.40;100.00;92390.53;5099175;28;20235;-72
2022/12/15 12:30:28;;;;;;;24.97;20.47;;;;;;;7.31;100.00;92395.50;5111796;28;20179;-72
2022/12/15 12:33:07;;;;;;;19.70;17.63;;;;;;;7.64;100.00;92397.47;5112029;28;20198;-71
2022/12/15 12:35:43;;;;;;;20.63;18.60;;;;;;;7.17;100.00;92407.50;5084163;28;20200;-73
2022/12/15 12:38:11;;;;;;;20.37;18.23;;;;;;;7.47;100.00;92417.78;5106517;28;20187;-73
2022/12/15 12:40:39;;;;;;;22.83;18.77;;;;;;;7.48;100.00;92428.97;5111449;28;20180;-72
2022/12/15 12:43:04;;;;;;;22.77;18.93;;;;;;;7.43;100.00;92408.97;5111933;28;20184;-74
2022/12/15 12:45:35;;;;;;;20.70;18.60;;;;;;;7.54;100.00;92430.50;5109378;28;20184;-73
2022/12/15 12:48:09;;;;;;;20.20;18.10;;;;;;;7.43;100.00;92419.38;5109841;28;20303;-73
2022/12/15 12:50:35;;;;;;;20.17;18.07;;;;;;;7.29;100.00;92435.75;5111253;28;20259;-72
2022/12/15 12:53:02;;;;;;;21.53;19.50;;;;;;;7.28;100.00;92432.41;5111249;28;20199;-73
2022/12/15 12:55:34;;;;;;;22.03;19.60;;;;;;;7.17;100.00;92414.50;5108298;28;20247;-71
2022/12/15 12:58:00;;;;;;;26.37;21.57;;;;;;;7.22;100.00;92425.63;5112080;28;20195;-72
2022/12/15 13:00:30;;;;;;;29.13;19.83;;;;;;;7.18;100.00;92432.41;5110572;28;20251;-70
2022/12/15 13:03:11;;;;;;;30.87;25.63;;;;;;;7.14;100.00;92423.59;5108610;28;20790;-72
2022/12/15 13:05:38;;;;;;;25.60;22.63;;;;;;;7.19;100.00;92422.81;5110828;28;20239;-72
2022/12/15 13:08:12;;;;;;;25.93;22.73;;;;;;;6.86;100.00;92434.50;5108377;28;20240;-71
2022/12/15 13:10:48;;;;;;;30.13;23.33;;;;;;;6.97;100.00;92424.91;5109149;28;20246;-71
2022/12/15 13:13:28;;;;;;;35.37;25.90;;;;;;;7.09;100.00;92439.16;5107108;28;20206;-71
2022/12/15 13:16:26;;;;;;;32.27;25.77;;;;;;;7.03;100.00;92436.81;5110253;28;20956;-71
2022/12/15 13:19:02;;;;;;;30.27;24.03;;;;;;;7.00;100.00;92422.56;5095969;28;20184;-69
2022/12/15 13:21:43;;;;;;;34.63;25.53;;;;;;;7.07;100.00;92436.03;5110048;28;20219;-71
2022/12/15 13:24:32;;;;;;;31.83;23.17;;;;;;;7.00;100.00;92445.91;5109857;28;20184;-70
2022/12/15 13:27:15;;;;;;;37.77;29.83;;;;;;;6.96;100.00;92450.06;5103594;28;20277;-69
2022/12/15 13:29:56;;;;;;;38.93;29.70;;;;;;;6.95;100.00;92445.91;5105115;28;20184;-70
2022/12/15 13:32:45;;;;;;;34.33;26.00;;;;;;;6.79;100.00;92452.13;5109492;28;20240;-69
2022/12/15 13:35:13;;;;;;;42.47;27.30;;;;;;;6.69;100.00;92454.72;5108145;28;20184;-70
2022/12/15 13:38:01;;;;;;;37.00;25.93;;;;;;;6.63;100.00;92449.78;5110198;28;20264;-69
2022/12/15 13:40:33;;;;;;;34.70;26.30;;;;;;;6.42;100.00;92447.19;5110165;28;20176;-68
2022/12/15 13:43:05;;;;;;;42.10;25.90;;;;;;;6.55;100.00;92448.50;5100392;28;20237;-70
2022/12/15 13:45:36;;;;;;;38.50;26.77;;;;;;;6.58;100.00;92456.50;5107407;28;20179;-70
2022/12/15 13:48:25;;;;;;;30.57;23.63;;;;;;;6.40;100.00;92469.19;5111067;28;20180;-71
2022/12/15 13:50:59;;;;;;;32.93;23.93;;;;;;;6.31;100.00;92457.78;5092950;28;20253;-70
2022/12/15 13:53:27;;;;;;;47.70;28.37;;;;;;;6.25;100.00;92461.38;5107778;28;20250;-71
2022/12/15 13:56:11;;;;;;;47.07;28.47;;;;;;;6.18;100.00;92461.63;5110619;28;20223;-72